JBU1415 KMYR-KFLL
Flight info
| Callsign | JBU1415 |
|---|---|
| Flight time | 1h 28m |
| Altitude | 38000 |
| Route | CHS CAKET Q97 PRMUS CUUDA3 |
| Aircraft | A320/M-SDE3FGHIRWY/LB1 |
Departure
| Time | 2026-04-25 01:34 |
|---|---|
| Airport | Myrtle Beach International Airport (KMYR) |
Arrival
| Time | 2026-04-25 03:02 |
|---|---|
| Airport | Fort Lauderdale Hollywood International Airport (KFLL) |
| Time | Latitude | Longitude | Altitude | Speed | Heading |
|---|---|---|---|---|---|
| 2026-04-25 01:13 | 33.68253 | -78.92415 | 32 ft | 0 kts | 93° |
| 2026-04-25 01:23 | 33.68255 | -78.92439 | 30 ft | 3 kts | 94° |
| 2026-04-25 01:23 | 33.68256 | -78.92456 | 31 ft | 4 kts | 103° |
| 2026-04-25 01:23 | 33.68274 | -78.92488 | 28 ft | 4 kts | 159° |
| 2026-04-25 01:24 | 33.68285 | -78.92492 | 31 ft | 1 kts | 167° |
| 2026-04-25 01:24 | 33.68288 | -78.92493 | 31 ft | 0 kts | 167° |
| 2026-04-25 01:28 | 33.68253 | -78.92490 | 24 ft | 5 kts | 176° |
| 2026-04-25 01:28 | 33.68210 | -78.92489 | 32 ft | 7 kts | 182° |
| 2026-04-25 01:28 | 33.68159 | -78.92522 | 31 ft | 10 kts | 229° |
| 2026-04-25 01:28 | 33.68130 | -78.92606 | 32 ft | 12 kts | 256° |
| 2026-04-25 01:29 | 33.68178 | -78.92680 | 32 ft | 14 kts | 349° |
| 2026-04-25 01:29 | 33.68282 | -78.92703 | 32 ft | 16 kts | 349° |
| 2026-04-25 01:29 | 33.68400 | -78.92732 | 32 ft | 19 kts | 348° |
| 2026-04-25 01:29 | 33.68534 | -78.92766 | 32 ft | 21 kts | 348° |
| 2026-04-25 01:30 | 33.68684 | -78.92806 | 32 ft | 23 kts | 347° |
| 2026-04-25 01:30 | 33.68850 | -78.92846 | 32 ft | 25 kts | 349° |
| 2026-04-25 01:30 | 33.69032 | -78.92850 | 32 ft | 27 kts | 356° |
| 2026-04-25 01:30 | 33.69200 | -78.92890 | 32 ft | 17 kts | 349° |
| 2026-04-25 01:31 | 33.69271 | -78.92924 | 32 ft | 10 kts | 293° |
| 2026-04-25 01:31 | 33.69260 | -78.93014 | 32 ft | 12 kts | 256° |
| 2026-04-25 01:31 | 33.69257 | -78.93030 | 32 ft | 0 kts | 256° |
| 2026-04-25 01:32 | 33.69252 | -78.93054 | 32 ft | 10 kts | 257° |
| 2026-04-25 01:32 | 33.69216 | -78.93132 | 33 ft | 12 kts | 205° |
| 2026-04-25 01:33 | 33.69117 | -78.93117 | 34 ft | 28 kts | 168° |
| 2026-04-25 01:33 | 33.68685 | -78.93010 | 33 ft | 96 kts | 168° |
| 2026-04-25 01:33 | 33.67852 | -78.92799 | 33 ft | 147 kts | 168° |
| 2026-04-25 01:33 | 33.66800 | -78.92562 | 432 ft | 154 kts | 173° |
| 2026-04-25 01:34 | 33.65739 | -78.92315 | 1078 ft | 157 kts | 177° |
| 2026-04-25 01:34 | 33.64654 | -78.92088 | 1561 ft | 166 kts | 176° |
| 2026-04-25 01:34 | 33.63415 | -78.91864 | 1759 ft | 192 kts | 178° |
| 2026-04-25 01:34 | 33.62009 | -78.91654 | 2039 ft | 215 kts | 179° |
| 2026-04-25 01:35 | 33.60412 | -78.91459 | 2282 ft | 246 kts | 179° |
| 2026-04-25 01:35 | 33.58619 | -78.91294 | 2747 ft | 265 kts | 182° |
| 2026-04-25 01:35 | 33.56840 | -78.91795 | 3570 ft | 265 kts | 213° |
| 2026-04-25 01:35 | 33.55522 | -78.93296 | 4461 ft | 264 kts | 237° |
| 2026-04-25 01:36 | 33.54491 | -78.95131 | 5339 ft | 268 kts | 237° |
| 2026-04-25 01:36 | 33.53426 | -78.96980 | 6203 ft | 272 kts | 235° |
| 2026-04-25 01:36 | 33.52328 | -78.98853 | 7025 ft | 276 kts | 235° |
| 2026-04-25 01:36 | 33.51227 | -79.00718 | 7889 ft | 278 kts | 234° |
| 2026-04-25 01:37 | 33.50109 | -79.02607 | 8794 ft | 279 kts | 234° |
| 2026-04-25 01:37 | 33.49334 | -79.03915 | 9382 ft | 280 kts | 234° |
| 2026-04-25 01:37 | 33.48944 | -79.04576 | 9681 ft | 281 kts | 234° |
| 2026-04-25 01:37 | 33.47805 | -79.06502 | 10354 ft | 290 kts | 234° |
| 2026-04-25 01:38 | 33.46588 | -79.08551 | 10565 ft | 312 kts | 234° |
| 2026-04-25 01:38 | 33.45295 | -79.10727 | 10973 ft | 326 kts | 234° |
| 2026-04-25 01:38 | 33.43971 | -79.12963 | 11620 ft | 331 kts | 235° |
| 2026-04-25 01:38 | 33.42653 | -79.15186 | 12356 ft | 333 kts | 235° |
| 2026-04-25 01:39 | 33.41303 | -79.17461 | 13084 ft | 336 kts | 235° |
| 2026-04-25 01:39 | 33.39942 | -79.19751 | 13831 ft | 338 kts | 235° |
| 2026-04-25 01:39 | 33.38574 | -79.22051 | 14461 ft | 341 kts | 235° |
| 2026-04-25 01:39 | 33.37190 | -79.24372 | 15051 ft | 344 kts | 235° |
| 2026-04-25 01:40 | 33.35792 | -79.26716 | 15630 ft | 348 kts | 236° |
| 2026-04-25 01:40 | 33.34382 | -79.29087 | 16198 ft | 352 kts | 236° |
| 2026-04-25 01:40 | 33.32953 | -79.31488 | 16776 ft | 356 kts | 236° |
| 2026-04-25 01:40 | 33.31510 | -79.33908 | 17354 ft | 360 kts | 236° |
| 2026-04-25 01:41 | 33.30045 | -79.36357 | 17934 ft | 363 kts | 236° |
| 2026-04-25 01:41 | 33.28563 | -79.38836 | 18492 ft | 368 kts | 236° |
| 2026-04-25 01:41 | 33.27092 | -79.41301 | 19009 ft | 371 kts | 236° |
| 2026-04-25 01:41 | 33.25584 | -79.43825 | 19540 ft | 374 kts | 236° |
| 2026-04-25 01:42 | 33.24064 | -79.46367 | 20100 ft | 377 kts | 236° |
| 2026-04-25 01:42 | 33.22529 | -79.48931 | 20611 ft | 381 kts | 236° |
| 2026-04-25 01:42 | 33.20976 | -79.51525 | 21123 ft | 385 kts | 236° |
| 2026-04-25 01:42 | 33.19411 | -79.54135 | 21635 ft | 388 kts | 236° |
| 2026-04-25 01:43 | 33.17832 | -79.56766 | 22141 ft | 392 kts | 236° |
| 2026-04-25 01:43 | 33.16236 | -79.59424 | 22647 ft | 395 kts | 236° |
| 2026-04-25 01:43 | 33.14625 | -79.62105 | 23146 ft | 398 kts | 236° |
| 2026-04-25 01:43 | 33.13001 | -79.64804 | 23621 ft | 402 kts | 236° |
| 2026-04-25 01:44 | 33.11365 | -79.67522 | 24028 ft | 405 kts | 236° |
| 2026-04-25 01:44 | 33.09736 | -79.70222 | 24423 ft | 407 kts | 235° |
| 2026-04-25 01:44 | 33.08055 | -79.73007 | 24821 ft | 410 kts | 235° |
| 2026-04-25 01:44 | 33.06408 | -79.75742 | 25209 ft | 412 kts | 236° |
| 2026-04-25 01:45 | 33.04709 | -79.78565 | 25610 ft | 415 kts | 235° |
| 2026-04-25 01:45 | 33.03042 | -79.81330 | 25999 ft | 417 kts | 235° |
| 2026-04-25 01:45 | 33.01343 | -79.84139 | 26385 ft | 419 kts | 235° |
| 2026-04-25 01:45 | 32.99630 | -79.86966 | 26754 ft | 421 kts | 235° |
| 2026-04-25 01:46 | 32.97911 | -79.89805 | 27116 ft | 424 kts | 235° |
| 2026-04-25 01:46 | 32.96179 | -79.92666 | 27477 ft | 426 kts | 235° |
| 2026-04-25 01:46 | 32.94439 | -79.95537 | 27834 ft | 429 kts | 235° |
| 2026-04-25 01:46 | 32.92689 | -79.98424 | 28192 ft | 431 kts | 235° |
| 2026-04-25 01:47 | 32.90858 | -80.01271 | 28546 ft | 435 kts | 229° |
| 2026-04-25 01:47 | 32.88667 | -80.03771 | 28887 ft | 438 kts | 219° |
| 2026-04-25 01:47 | 32.86129 | -80.05811 | 29232 ft | 442 kts | 210° |
| 2026-04-25 01:47 | 32.83390 | -80.07504 | 29571 ft | 445 kts | 208° |
| 2026-04-25 01:48 | 32.80629 | -80.09203 | 29911 ft | 447 kts | 209° |
| 2026-04-25 01:48 | 32.77867 | -80.10915 | 30222 ft | 450 kts | 208° |
| 2026-04-25 01:48 | 32.75122 | -80.12620 | 30496 ft | 451 kts | 209° |
| 2026-04-25 01:48 | 32.72332 | -80.14351 | 30769 ft | 454 kts | 209° |
| 2026-04-25 01:49 | 32.69529 | -80.16087 | 31039 ft | 455 kts | 209° |
| 2026-04-25 01:49 | 32.66717 | -80.17826 | 31409 ft | 455 kts | 209° |
| 2026-04-25 01:49 | 32.63916 | -80.19555 | 31809 ft | 453 kts | 209° |
| 2026-04-25 01:49 | 32.61114 | -80.21277 | 32200 ft | 453 kts | 209° |
| 2026-04-25 01:50 | 32.58314 | -80.22993 | 32585 ft | 452 kts | 209° |
| 2026-04-25 01:50 | 32.55521 | -80.24701 | 32962 ft | 452 kts | 209° |
| 2026-04-25 01:50 | 32.52731 | -80.26406 | 33346 ft | 451 kts | 209° |
| 2026-04-25 01:50 | 32.49949 | -80.28120 | 33722 ft | 451 kts | 209° |
| 2026-04-25 01:51 | 32.47177 | -80.29863 | 34073 ft | 451 kts | 210° |
| 2026-04-25 01:51 | 32.44413 | -80.31624 | 34402 ft | 451 kts | 210° |
| 2026-04-25 01:51 | 32.41652 | -80.33391 | 34751 ft | 450 kts | 210° |
| 2026-04-25 01:51 | 32.38901 | -80.35146 | 35089 ft | 449 kts | 210° |
| 2026-04-25 01:52 | 32.36146 | -80.36895 | 35426 ft | 448 kts | 210° |
| 2026-04-25 01:52 | 32.33400 | -80.38631 | 35753 ft | 446 kts | 210° |
| 2026-04-25 01:52 | 32.30701 | -80.40335 | 36075 ft | 445 kts | 210° |
| 2026-04-25 01:52 | 32.27971 | -80.42056 | 36393 ft | 444 kts | 210° |
| 2026-04-25 01:53 | 32.25242 | -80.43776 | 36693 ft | 443 kts | 210° |
| 2026-04-25 01:53 | 32.22520 | -80.45492 | 36961 ft | 443 kts | 210° |
| 2026-04-25 01:53 | 32.19799 | -80.47206 | 37226 ft | 443 kts | 210° |
| 2026-04-25 01:53 | 32.17084 | -80.48916 | 37498 ft | 442 kts | 210° |
| 2026-04-25 01:54 | 32.14373 | -80.50622 | 37773 ft | 441 kts | 210° |
| 2026-04-25 01:54 | 32.11664 | -80.52324 | 37993 ft | 441 kts | 210° |
| 2026-04-25 01:54 | 32.06238 | -80.55725 | 38042 ft | 440 kts | 210° |
| 2026-04-25 01:55 | 32.00873 | -80.59084 | 38042 ft | 439 kts | 210° |
| 2026-04-25 01:55 | 31.95478 | -80.62466 | 38035 ft | 440 kts | 210° |
| 2026-04-25 01:56 | 31.90074 | -80.65848 | 38044 ft | 440 kts | 210° |
| 2026-04-25 01:56 | 31.84657 | -80.69230 | 38044 ft | 440 kts | 210° |
| 2026-04-25 01:57 | 31.78005 | -80.73365 | 38044 ft | 441 kts | 210° |
| 2026-04-25 01:58 | 31.74244 | -80.75704 | 38045 ft | 441 kts | 210° |
| 2026-04-25 01:58 | 31.68786 | -80.79098 | 38045 ft | 441 kts | 210° |
| 2026-04-25 01:59 | 31.63396 | -80.82454 | 38044 ft | 442 kts | 210° |
| 2026-04-25 01:59 | 31.57961 | -80.85828 | 38054 ft | 442 kts | 210° |
| 2026-04-25 02:00 | 31.52518 | -80.89200 | 38065 ft | 442 kts | 210° |
| 2026-04-25 02:00 | 31.47064 | -80.92561 | 38050 ft | 442 kts | 209° |
| 2026-04-25 02:01 | 31.41630 | -80.95919 | 38062 ft | 441 kts | 209° |
| 2026-04-25 02:01 | 31.36200 | -80.99269 | 38066 ft | 441 kts | 209° |
| 2026-04-25 02:02 | 31.30800 | -81.02587 | 38077 ft | 441 kts | 209° |
| 2026-04-25 02:02 | 31.25174 | -81.05448 | 38073 ft | 443 kts | 196° |
| 2026-04-25 02:03 | 31.19032 | -81.06243 | 38069 ft | 446 kts | 182° |
| 2026-04-25 02:03 | 31.12819 | -81.06366 | 38071 ft | 447 kts | 183° |
| 2026-04-25 02:04 | 31.06605 | -81.06502 | 38073 ft | 447 kts | 183° |
| 2026-04-25 02:04 | 31.00386 | -81.06629 | 38074 ft | 447 kts | 182° |
| 2026-04-25 02:05 | 30.94162 | -81.06752 | 38080 ft | 447 kts | 183° |
| 2026-04-25 02:05 | 30.87931 | -81.06883 | 38076 ft | 448 kts | 183° |
| 2026-04-25 02:06 | 30.81730 | -81.07009 | 38076 ft | 448 kts | 182° |
| 2026-04-25 02:06 | 30.75498 | -81.07132 | 38081 ft | 448 kts | 182° |
| 2026-04-25 02:07 | 30.69257 | -81.07262 | 38081 ft | 448 kts | 183° |
| 2026-04-25 02:07 | 30.63027 | -81.07391 | 38071 ft | 448 kts | 182° |
| 2026-04-25 02:08 | 30.56835 | -81.07650 | 38073 ft | 448 kts | 185° |
| 2026-04-25 02:08 | 30.50618 | -81.08077 | 38078 ft | 448 kts | 185° |
| 2026-04-25 02:09 | 30.44399 | -81.08499 | 38084 ft | 448 kts | 185° |
| 2026-04-25 02:09 | 30.38174 | -81.08881 | 38083 ft | 448 kts | 185° |
| 2026-04-25 02:10 | 30.31947 | -81.09252 | 38082 ft | 448 kts | 185° |
| 2026-04-25 02:10 | 30.25730 | -81.09621 | 38082 ft | 447 kts | 185° |
| 2026-04-25 02:11 | 30.20559 | -81.09933 | 38085 ft | 447 kts | 185° |
| 2026-04-25 02:11 | 30.14342 | -81.10304 | 38090 ft | 448 kts | 185° |
| 2026-04-25 02:12 | 30.07071 | -81.10741 | 38088 ft | 447 kts | 185° |
| 2026-04-25 02:12 | 30.01907 | -81.11052 | 38095 ft | 447 kts | 185° |
| 2026-04-25 02:13 | 29.95688 | -81.11416 | 38094 ft | 447 kts | 185° |
| 2026-04-25 02:13 | 29.89461 | -81.11777 | 38093 ft | 448 kts | 185° |
| 2026-04-25 02:14 | 29.83235 | -81.11875 | 38093 ft | 450 kts | 175° |
| 2026-04-25 02:14 | 29.77236 | -81.10008 | 38081 ft | 453 kts | 158° |
| 2026-04-25 02:15 | 29.71450 | -81.07144 | 38074 ft | 453 kts | 158° |
| 2026-04-25 02:15 | 29.65651 | -81.04299 | 38075 ft | 453 kts | 159° |
| 2026-04-25 02:16 | 29.59845 | -81.01467 | 38081 ft | 453 kts | 159° |
| 2026-04-25 02:16 | 29.54050 | -80.98644 | 38080 ft | 453 kts | 159° |
| 2026-04-25 02:17 | 29.48241 | -80.95802 | 38080 ft | 454 kts | 159° |
| 2026-04-25 02:17 | 29.42429 | -80.92965 | 38085 ft | 454 kts | 159° |
| 2026-04-25 02:18 | 29.40881 | -80.92212 | 38086 ft | 454 kts | 159° |
| 2026-04-25 02:20 | 29.37023 | -80.90336 | 38091 ft | 454 kts | 159° |
| 2026-04-25 02:21 | 29.31236 | -80.87518 | 38073 ft | 455 kts | 159° |
| 2026-04-25 02:21 | 29.25403 | -80.84682 | 38072 ft | 456 kts | 159° |
| 2026-04-25 02:22 | 29.24183 | -80.84091 | 38074 ft | 456 kts | 159° |
| 2026-04-25 02:22 | 29.19486 | -80.81814 | 38071 ft | 456 kts | 159° |
| 2026-04-25 02:23 | 29.13635 | -80.78979 | 38069 ft | 456 kts | 159° |
| 2026-04-25 02:23 | 29.07789 | -80.76148 | 38069 ft | 456 kts | 159° |
| 2026-04-25 02:24 | 29.04442 | -80.74531 | 38069 ft | 456 kts | 159° |
| 2026-04-25 02:24 | 28.98588 | -80.71708 | 38070 ft | 456 kts | 159° |
| 2026-04-25 02:25 | 28.92710 | -80.68947 | 38072 ft | 456 kts | 160° |
| 2026-04-25 02:25 | 28.86786 | -80.66324 | 38056 ft | 456 kts | 161° |
| 2026-04-25 02:26 | 28.80862 | -80.63716 | 38065 ft | 457 kts | 161° |
| 2026-04-25 02:26 | 28.74942 | -80.61085 | 38060 ft | 457 kts | 160° |
| 2026-04-25 02:27 | 28.69018 | -80.58436 | 38061 ft | 457 kts | 160° |
| 2026-04-25 02:27 | 28.63131 | -80.55809 | 38058 ft | 457 kts | 160° |
| 2026-04-25 02:28 | 28.57215 | -80.53173 | 38055 ft | 457 kts | 161° |
| 2026-04-25 02:28 | 28.51291 | -80.50541 | 38051 ft | 457 kts | 161° |
| 2026-04-25 02:29 | 28.45358 | -80.47921 | 38049 ft | 458 kts | 161° |
| 2026-04-25 02:29 | 28.39419 | -80.45283 | 38054 ft | 458 kts | 161° |
| 2026-04-25 02:30 | 28.33479 | -80.42645 | 38053 ft | 458 kts | 161° |
| 2026-04-25 02:30 | 28.27544 | -80.40017 | 38054 ft | 458 kts | 161° |
| 2026-04-25 02:31 | 28.21604 | -80.37400 | 38058 ft | 458 kts | 161° |
| 2026-04-25 02:31 | 28.15654 | -80.34781 | 38063 ft | 458 kts | 161° |
| 2026-04-25 02:32 | 28.09701 | -80.32157 | 38063 ft | 458 kts | 161° |
| 2026-04-25 02:32 | 28.03721 | -80.29681 | 38072 ft | 457 kts | 163° |
| 2026-04-25 02:33 | 27.97704 | -80.27389 | 37827 ft | 467 kts | 164° |
| 2026-04-25 02:33 | 27.94601 | -80.26224 | 37394 ft | 471 kts | 164° |
| 2026-04-25 02:33 | 27.91499 | -80.25043 | 36749 ft | 469 kts | 163° |
| 2026-04-25 02:33 | 27.88400 | -80.23843 | 35983 ft | 471 kts | 163° |
| 2026-04-25 02:34 | 27.85291 | -80.22624 | 35180 ft | 474 kts | 163° |
| 2026-04-25 02:34 | 27.82165 | -80.21397 | 34376 ft | 477 kts | 163° |
| 2026-04-25 02:34 | 27.79019 | -80.20163 | 33599 ft | 479 kts | 163° |
| 2026-04-25 02:34 | 27.75896 | -80.18938 | 33121 ft | 473 kts | 163° |
| 2026-04-25 02:35 | 27.72795 | -80.17725 | 32559 ft | 469 kts | 163° |
| 2026-04-25 02:35 | 27.69763 | -80.16545 | 32005 ft | 466 kts | 164° |
| 2026-04-25 02:35 | 27.66709 | -80.15359 | 31457 ft | 463 kts | 164° |
| 2026-04-25 02:35 | 27.63671 | -80.14182 | 30899 ft | 461 kts | 164° |
| 2026-04-25 02:36 | 27.60650 | -80.13009 | 30385 ft | 457 kts | 163° |
| 2026-04-25 02:36 | 27.57663 | -80.11813 | 29831 ft | 454 kts | 163° |
| 2026-04-25 02:36 | 27.54710 | -80.10593 | 29325 ft | 449 kts | 162° |
| 2026-04-25 02:36 | 27.51795 | -80.09369 | 28809 ft | 445 kts | 162° |
| 2026-04-25 02:37 | 27.48905 | -80.08153 | 28313 ft | 440 kts | 162° |
| 2026-04-25 02:37 | 27.46047 | -80.06955 | 27823 ft | 436 kts | 162° |
| 2026-04-25 02:37 | 27.43217 | -80.05780 | 27354 ft | 432 kts | 163° |
| 2026-04-25 02:37 | 27.40403 | -80.04623 | 26882 ft | 428 kts | 163° |
| 2026-04-25 02:38 | 27.37608 | -80.03505 | 26440 ft | 424 kts | 165° |
| 2026-04-25 02:38 | 27.34801 | -80.02526 | 25987 ft | 421 kts | 167° |
| 2026-04-25 02:38 | 27.31985 | -80.01662 | 25566 ft | 417 kts | 168° |
| 2026-04-25 02:38 | 27.29212 | -80.00872 | 25146 ft | 415 kts | 169° |
| 2026-04-25 02:39 | 27.26417 | -80.00088 | 24726 ft | 413 kts | 169° |
| 2026-04-25 02:39 | 27.23643 | -79.99261 | 24297 ft | 412 kts | 167° |
| 2026-04-25 02:39 | 27.20892 | -79.98333 | 23871 ft | 412 kts | 165° |
| 2026-04-25 02:39 | 27.18167 | -79.97341 | 23383 ft | 412 kts | 164° |
| 2026-04-25 02:40 | 27.15472 | -79.96325 | 23148 ft | 403 kts | 164° |
| 2026-04-25 02:40 | 27.12830 | -79.95326 | 22741 ft | 399 kts | 164° |
| 2026-04-25 02:40 | 27.10198 | -79.94343 | 22263 ft | 397 kts | 164° |
| 2026-04-25 02:40 | 27.07583 | -79.93382 | 21812 ft | 394 kts | 165° |
| 2026-04-25 02:41 | 27.04991 | -79.92416 | 21380 ft | 391 kts | 164° |
| 2026-04-25 02:41 | 27.02428 | -79.91405 | 20947 ft | 388 kts | 163° |
| 2026-04-25 02:41 | 26.99895 | -79.90373 | 20507 ft | 385 kts | 162° |
| 2026-04-25 02:41 | 26.97389 | -79.89342 | 20065 ft | 382 kts | 162° |
| 2026-04-25 02:42 | 26.94899 | -79.88320 | 19639 ft | 379 kts | 163° |
| 2026-04-25 02:42 | 26.92428 | -79.87311 | 19217 ft | 376 kts | 163° |
| 2026-04-25 02:42 | 26.89978 | -79.86316 | 18803 ft | 373 kts | 163° |
| 2026-04-25 02:42 | 26.87546 | -79.85330 | 18394 ft | 370 kts | 163° |
| 2026-04-25 02:43 | 26.85157 | -79.84367 | 17934 ft | 367 kts | 163° |
| 2026-04-25 02:43 | 26.82768 | -79.83406 | 17475 ft | 364 kts | 163° |
| 2026-04-25 02:43 | 26.80390 | -79.82450 | 17012 ft | 361 kts | 163° |
| 2026-04-25 02:43 | 26.78035 | -79.81503 | 16568 ft | 358 kts | 163° |
| 2026-04-25 02:44 | 26.75698 | -79.80564 | 16136 ft | 355 kts | 163° |
| 2026-04-25 02:44 | 26.73375 | -79.79638 | 15707 ft | 352 kts | 165° |
| 2026-04-25 02:44 | 26.71009 | -79.79094 | 15297 ft | 344 kts | 179° |
| 2026-04-25 02:44 | 26.68643 | -79.79152 | 14880 ft | 337 kts | 191° |
| 2026-04-25 02:45 | 26.67737 | -79.79329 | 14715 ft | 334 kts | 196° |
| 2026-04-25 02:45 | 26.66083 | -79.79887 | 14448 ft | 331 kts | 203° |
| 2026-04-25 02:45 | 26.63923 | -79.80773 | 14027 ft | 329 kts | 202° |
| 2026-04-25 02:45 | 26.61795 | -79.81639 | 13782 ft | 322 kts | 202° |
| 2026-04-25 02:46 | 26.59704 | -79.82485 | 13400 ft | 318 kts | 202° |
| 2026-04-25 02:46 | 26.57629 | -79.83329 | 12985 ft | 316 kts | 202° |
| 2026-04-25 02:46 | 26.55568 | -79.84169 | 12565 ft | 315 kts | 202° |
| 2026-04-25 02:46 | 26.53568 | -79.85036 | 12351 ft | 307 kts | 204° |
| 2026-04-25 02:47 | 26.53420 | -79.85103 | 12330 ft | 306 kts | 204° |
| 2026-04-25 02:47 | 26.51470 | -79.86014 | 12040 ft | 302 kts | 205° |
| 2026-04-25 02:47 | 26.49551 | -79.86936 | 11692 ft | 299 kts | 205° |
| 2026-04-25 02:47 | 26.47643 | -79.87857 | 11335 ft | 298 kts | 205° |
| 2026-04-25 02:48 | 26.45744 | -79.88768 | 10975 ft | 297 kts | 205° |
| 2026-04-25 02:48 | 26.43848 | -79.89668 | 10619 ft | 296 kts | 205° |
| 2026-04-25 02:48 | 26.41957 | -79.90559 | 10275 ft | 295 kts | 204° |
| 2026-04-25 02:48 | 26.40068 | -79.91445 | 9936 ft | 294 kts | 204° |
| 2026-04-25 02:49 | 26.38201 | -79.92352 | 9563 ft | 292 kts | 209° |
| 2026-04-25 02:49 | 26.36441 | -79.93472 | 9184 ft | 290 kts | 211° |
| 2026-04-25 02:49 | 26.34696 | -79.94596 | 8834 ft | 288 kts | 211° |
| 2026-04-25 02:49 | 26.32984 | -79.95695 | 8475 ft | 287 kts | 211° |
| 2026-04-25 02:50 | 26.31253 | -79.96805 | 8131 ft | 286 kts | 211° |
| 2026-04-25 02:50 | 26.29553 | -79.97896 | 8060 ft | 280 kts | 211° |
| 2026-04-25 02:50 | 26.27862 | -79.98982 | 8060 ft | 281 kts | 211° |
| 2026-04-25 02:50 | 26.26163 | -80.00072 | 8060 ft | 282 kts | 211° |
| 2026-04-25 02:51 | 26.24463 | -80.01163 | 8064 ft | 281 kts | 211° |
| 2026-04-25 02:51 | 26.22765 | -80.02254 | 8066 ft | 281 kts | 211° |
| 2026-04-25 02:51 | 26.21068 | -80.03344 | 7794 ft | 282 kts | 210° |
| 2026-04-25 02:51 | 26.19404 | -80.04503 | 7397 ft | 282 kts | 219° |
| 2026-04-25 02:52 | 26.18072 | -80.06085 | 7078 ft | 281 kts | 236° |
| 2026-04-25 02:52 | 26.17209 | -80.08025 | 6731 ft | 280 kts | 251° |
| 2026-04-25 02:52 | 26.16596 | -80.10083 | 6348 ft | 281 kts | 251° |
| 2026-04-25 02:52 | 26.15976 | -80.12147 | 5968 ft | 281 kts | 250° |
| 2026-04-25 02:53 | 26.15363 | -80.14185 | 5591 ft | 281 kts | 251° |
| 2026-04-25 02:53 | 26.15022 | -80.16334 | 5222 ft | 283 kts | 267° |
| 2026-04-25 02:53 | 26.15034 | -80.18523 | 4900 ft | 281 kts | 270° |
| 2026-04-25 02:53 | 26.15050 | -80.20689 | 4577 ft | 278 kts | 269° |
| 2026-04-25 02:54 | 26.15059 | -80.22823 | 4365 ft | 275 kts | 269° |
| 2026-04-25 02:54 | 26.15066 | -80.24942 | 4183 ft | 273 kts | 269° |
| 2026-04-25 02:54 | 26.15068 | -80.25549 | 4132 ft | 273 kts | 269° |
| 2026-04-25 02:54 | 26.15081 | -80.27061 | 3651 ft | 282 kts | 270° |
| 2026-04-25 02:55 | 26.15103 | -80.29225 | 3498 ft | 274 kts | 269° |
| 2026-04-25 02:55 | 26.15109 | -80.30287 | 3470 ft | 268 kts | 269° |
| 2026-04-25 02:55 | 26.15145 | -80.31693 | 3428 ft | 259 kts | 270° |
| 2026-04-25 02:56 | 26.15148 | -80.33647 | 3367 ft | 246 kts | 268° |
| 2026-04-25 02:56 | 26.14987 | -80.35478 | 3298 ft | 230 kts | 251° |
| 2026-04-25 02:56 | 26.14282 | -80.37004 | 3211 ft | 220 kts | 227° |
| 2026-04-25 02:56 | 26.13119 | -80.38047 | 3114 ft | 214 kts | 203° |
| 2026-04-25 02:57 | 26.11696 | -80.38473 | 3045 ft | 212 kts | 179° |
| 2026-04-25 02:57 | 26.10258 | -80.38253 | 3047 ft | 209 kts | 158° |
| 2026-04-25 02:57 | 26.09012 | -80.37442 | 3044 ft | 209 kts | 136° |
| 2026-04-25 02:57 | 26.08903 | -80.37330 | 3043 ft | 209 kts | 134° |
| 2026-04-25 02:58 | 26.08077 | -80.36008 | 3049 ft | 209 kts | 112° |
| 2026-04-25 02:58 | 26.07776 | -80.34453 | 2993 ft | 207 kts | 92° |
| 2026-04-25 02:58 | 26.07766 | -80.33601 | 2900 ft | 210 kts | 90° |
| 2026-04-25 02:58 | 26.07767 | -80.32560 | 2748 ft | 209 kts | 92° |
| 2026-04-25 02:59 | 26.07764 | -80.30958 | 2498 ft | 205 kts | 92° |
| 2026-04-25 02:59 | 26.07758 | -80.29392 | 2248 ft | 202 kts | 91° |
| 2026-04-25 02:59 | 26.07751 | -80.27846 | 1984 ft | 199 kts | 91° |
| 2026-04-25 02:59 | 26.07748 | -80.27150 | 1868 ft | 199 kts | 92° |
| 2026-04-25 03:00 | 26.07740 | -80.25854 | 1639 ft | 198 kts | 91° |
| 2026-04-25 03:00 | 26.07735 | -80.24671 | 1435 ft | 196 kts | 92° |
| 2026-04-25 03:00 | 26.07734 | -80.24011 | 1318 ft | 196 kts | 91° |
| 2026-04-25 03:00 | 26.07730 | -80.23199 | 1180 ft | 193 kts | 92° |
| 2026-04-25 03:01 | 26.07719 | -80.21904 | 975 ft | 191 kts | 91° |
| 2026-04-25 03:01 | 26.07714 | -80.20440 | 735 ft | 188 kts | 91° |
| 2026-04-25 03:01 | 26.07707 | -80.19053 | 526 ft | 170 kts | 91° |
| 2026-04-25 03:01 | 26.07701 | -80.17803 | 307 ft | 151 kts | 93° |
| 2026-04-25 03:02 | 26.07696 | -80.16694 | 124 ft | 136 kts | 91° |
| 2026-04-25 03:02 | 26.07691 | -80.15658 | 16 ft | 127 kts | 91° |
| 2026-04-25 03:02 | 26.07652 | -80.14875 | 19 ft | 76 kts | 94° |
| 2026-04-25 03:02 | 26.07668 | -80.14476 | 20 ft | 27 kts | 85° |
| 2026-04-25 03:03 | 26.07680 | -80.14278 | 20 ft | 32 kts | 86° |
| 2026-04-25 03:03 | 26.07685 | -80.14111 | 18 ft | 30 kts | 90° |
| 2026-04-25 03:03 | 26.07642 | -80.14001 | 17 ft | 14 kts | 170° |
| 2026-04-25 03:03 | 26.07536 | -80.13995 | 16 ft | 14 kts | 172° |
| 2026-04-25 03:04 | 26.07484 | -80.14019 | 16 ft | 9 kts | 255° |
| 2026-04-25 03:04 | 26.07482 | -80.14101 | 16 ft | 12 kts | 270° |
| 2026-04-25 03:04 | 26.07482 | -80.14259 | 16 ft | 20 kts | 271° |
| 2026-04-25 03:05 | 26.07490 | -80.14603 | 16 ft | 29 kts | 269° |
| 2026-04-25 03:05 | 26.07489 | -80.14685 | 16 ft | 19 kts | 270° |
| 2026-04-25 03:05 | 26.07477 | -80.14776 | 18 ft | 15 kts | 243° |
| 2026-04-25 03:05 | 26.07382 | -80.14853 | 16 ft | 16 kts | 185° |
| 2026-04-25 03:06 | 26.07284 | -80.14846 | 16 ft | 16 kts | 152° |
| 2026-04-25 03:06 | 26.07263 | -80.14826 | 16 ft | 17 kts | 134° |
| 2026-04-25 03:06 | 26.07219 | -80.14722 | 16 ft | 14 kts | 111° |
| 2026-04-25 03:06 | 26.07191 | -80.14653 | 17 ft | 5 kts | 147° |
| 2026-04-25 03:07 | 26.07153 | -80.14648 | 16 ft | 3 kts | 178° |
| 2026-04-25 03:07 | 26.07151 | -80.14648 | 16 ft | 0 kts | 178° |